Time;durP1;ratioP1;P1;durP2;ratioP2;P2;SDS_P1;SDS_P2;PMS_P1;PMS_P2;Temp;Humidity;BMP_temperature;BMP_pressure;BME280_temperature;BME280_humidity;BME280_pressure;Samples;Min_cycle;Max_cycle;Signal;HPM_P1;HPM_P2
2022/09/09 00:01:40;;;;;;;1.73;0.20;;;15.10;99.90;;;;;;4978833;28;20509;-82
2022/09/09 00:04:32;;;;;;;1.25;0.30;;;15.10;99.90;;;;;;4997060;28;20044;-80
2022/09/09 00:07:35;;;;;;;0.60;0.20;;;15.10;99.90;;;;;;4982143;28;20062;-79
2022/09/09 00:10:28;;;;;;;1.25;0.20;;;15.00;99.90;;;;;;4981522;28;20536;-78
2022/09/09 00:13:15;;;;;;;0.47;0.10;;;15.00;99.90;;;;;;4997747;28;20033;-77
2022/09/09 00:16:24;;;;;;;0.68;0.10;;;15.10;99.90;;;;;;4982508;28;20042;-77
2022/09/09 00:19:21;;;;;;;0.68;0.20;;;15.10;99.90;;;;;;4980494;28;20042;-82
2022/09/09 00:22:18;;;;;;;1.38;0.20;;;15.00;99.90;;;;;;5000840;28;20105;-80
2022/09/09 00:24:55;;;;;;;0.70;0.20;;;15.00;99.90;;;;;;4984091;28;20276;-78
2022/09/09 00:27:29;;;;;;;1.02;0.20;;;15.00;99.90;;;;;;4984673;28;20052;-80
2022/09/09 00:30:22;;;;;;;0.52;0.15;;;15.00;99.90;;;;;;5019330;28;20025;-80
2022/09/09 00:32:53;;;;;;;0.70;0.20;;;15.00;99.90;;;;;;4985946;28;20031;-81
2022/09/09 00:35:27;;;;;;;0.52;0.10;;;15.00;99.90;;;;;;4985292;28;20597;-79
2022/09/09 00:38:01;;;;;;;1.60;0.20;;;15.00;99.90;;;;;;5019628;28;20046;-82
2022/09/09 00:40:38;;;;;;;0.80;0.10;;;15.00;99.90;;;;;;4992507;28;20125;-82
2022/09/09 00:43:07;;;;;;;0.38;0.10;;;14.90;99.90;;;;;;5001438;28;20057;-78
2022/09/09 00:45:56;;;;;;;1.30;0.10;;;15.00;99.90;;;;;;4986122;28;20054;-78
2022/09/09 00:48:27;;;;;;;1.02;0.13;;;15.00;99.90;;;;;;4988029;28;22044;-82
2022/09/09 00:51:07;;;;;;;0.35;0.10;;;15.00;99.90;;;;;;4981997;28;20415;-76
2022/09/09 00:53:56;;;;;;;0.20;0.10;;;14.90;99.90;;;;;;4986987;28;20080;-79
2022/09/09 00:56:27;;;;;;;0.77;0.10;;;14.90;99.90;;;;;;4999092;28;20177;-82
2022/09/09 00:59:10;;;;;;;0.60;0.10;;;14.90;99.90;;;;;;4987285;28;20108;-76
2022/09/09 01:01:36;;;;;;;0.52;0.10;;;14.90;99.90;;;;;;5002476;28;20038;-78
2022/09/09 01:04:10;;;;;;;0.40;0.10;;;14.70;99.90;;;;;;5003574;28;20037;-79
2022/09/09 01:06:38;;;;;;;0.88;0.10;;;14.80;99.90;;;;;;4986260;28;20364;-77
2022/09/09 01:09:34;;;;;;;1.42;0.10;;;14.70;99.90;;;;;;5002831;28;20430;-76
2022/09/09 01:12:17;;;;;;;0.70;0.10;;;14.80;99.90;;;;;;4999707;28;20034;-78
2022/09/09 01:14:50;;;;;;;0.40;0.00;;;14.70;99.90;;;;;;4985424;28;20422;-81
2022/09/09 01:17:32;;;;;;;1.17;0.10;;;14.70;99.90;;;;;;4984702;28;20039;-79
2022/09/09 01:20:20;;;;;;;0.50;0.10;;;14.60;99.90;;;;;;5001240;28;20018;-76
2022/09/09 01:23:00;;;;;;;0.40;0.00;;;14.60;99.90;;;;;;4986707;28;20054;-80
2022/09/09 01:26:04;;;;;;;0.98;0.10;;;14.50;99.90;;;;;;5000813;28;20109;-75
2022/09/09 01:28:32;;;;;;;0.50;0.10;;;14.50;99.90;;;;;;5002216;28;20031;-78
2022/09/09 01:31:05;;;;;;;1.55;0.10;;;14.40;99.90;;;;;;5002776;28;20022;-78
2022/09/09 01:33:38;;;;;;;0.38;0.03;;;14.40;99.90;;;;;;5016938;28;20048;-79
2022/09/09 01:36:11;;;;;;;0.85;0.20;;;14.40;99.90;;;;;;4987672;28;20113;-76
2022/09/09 01:38:45;;;;;;;0.30;0.10;;;14.40;99.90;;;;;;4981233;28;20054;-79
2022/09/09 01:41:10;;;;;;;0.32;0.00;;;14.40;99.90;;;;;;4970357;28;20380;-80
2022/09/09 01:43:44;;;;;;;0.20;0.00;;;14.30;99.90;;;;;;4967695;28;20471;-78
2022/09/09 01:46:11;;;;;;;0.50;0.10;;;14.30;99.90;;;;;;5019307;28;20103;-78
2022/09/09 01:48:38;;;;;;;0.93;0.05;;;14.20;99.90;;;;;;4978676;28;20026;-78
2022/09/09 01:51:10;;;;;;;;;;;14.20;99.90;;;;;;4986370;28;20069;-77
2022/09/09 01:53:36;;;;;;;0.38;0.10;;;14.20;99.90;;;;;;5018372;28;20266;-77
2022/09/09 01:56:25;;;;;;;0.60;0.10;;;14.20;99.90;;;;;;5002246;28;20030;-81
2022/09/09 01:59:04;;;;;;;0.50;0.10;;;14.20;99.90;;;;;;5001655;28;20117;-77
2022/09/09 02:02:01;;;;;;;0.55;0.13;;;14.10;99.90;;;;;;5017869;28;20038;-75
2022/09/09 02:04:26;;;;;;;0.70;0.05;;;14.10;99.90;;;;;;5001372;28;20113;-80
2022/09/09 02:06:56;;;;;;;0.38;0.00;;;14.10;99.90;;;;;;5017786;28;20175;-78
2022/09/09 02:09:29;;;;;;;0.10;0.00;;;14.10;99.90;;;;;;5015933;28;20038;-81
2022/09/09 02:12:08;;;;;;;0.50;0.00;;;14.00;99.90;;;;;;5000583;28;20082;-77
2022/09/09 02:14:50;;;;;;;0.68;0.00;;;14.10;99.90;;;;;;5000753;28;20035;-76
2022/09/09 02:17:22;;;;;;;0.63;0.10;;;14.10;99.90;;;;;;4990628;28;20043;-81
2022/09/09 02:20:14;;;;;;;0.57;0.10;;;14.00;99.90;;;;;;4984811;28;20023;-75
2022/09/09 02:23:02;;;;;;;1.30;0.00;;;14.00;99.90;;;;;;4982962;28;20026;-79
2022/09/09 02:25:29;;;;;;;0.40;0.10;;;14.00;99.90;;;;;;5000400;28;20030;-80
2022/09/09 02:28:04;;;;;;;0.20;0.10;;;14.10;99.90;;;;;;5000557;28;20601;-80
2022/09/09 02:30:31;;;;;;;0.50;0.10;;;14.10;99.90;;;;;;5016255;28;20072;-79
2022/09/09 02:33:01;;;;;;;0.30;0.10;;;14.10;99.90;;;;;;5000290;28;20027;-81
2022/09/09 02:35:48;;;;;;;0.95;0.10;;;14.00;99.90;;;;;;4985141;28;20037;-76
2022/09/09 02:38:20;;;;;;;0.85;0.10;;;14.00;99.90;;;;;;4997953;28;20030;-80
2022/09/09 02:41:06;;;;;;;0.52;0.00;;;14.00;99.90;;;;;;4998394;28;20057;-79
2022/09/09 02:43:34;;;;;;;0.25;0.00;;;13.90;99.90;;;;;;4996343;28;20037;-74
2022/09/09 02:46:23;;;;;;;0.38;0.00;;;13.90;99.90;;;;;;5002542;28;20501;-77
2022/09/09 02:49:01;;;;;;;0.17;0.10;;;13.90;99.90;;;;;;5016060;28;20023;-80
2022/09/09 02:51:59;;;;;;;0.40;0.10;;;13.90;99.90;;;;;;5016794;28;20061;-78
2022/09/09 02:54:35;;;;;;;0.82;0.10;;;13.90;99.90;;;;;;4999246;28;20019;-78
2022/09/09 02:57:31;;;;;;;0.52;0.13;;;13.90;99.90;;;;;;4982564;28;20041;-77
2022/09/09 02:59:58;;;;;;;0.20;0.10;;;13.90;99.90;;;;;;4999131;28;20034;-79
2022/09/09 03:02:25;;;;;;;0.52;0.10;;;13.80;99.90;;;;;;5000808;28;20167;-77
2022/09/09 03:04:56;;;;;;;0.52;0.10;;;13.80;99.90;;;;;;4999384;28;20051;-80
2022/09/09 03:07:21;;;;;;;1.55;0.20;;;13.70;99.90;;;;;;4982779;28;20031;-76
2022/09/09 03:09:49;;;;;;;0.43;0.10;;;13.70;99.90;;;;;;4998782;28;20033;-77
2022/09/09 03:12:15;;;;;;;0.52;0.13;;;13.80;99.90;;;;;;4966894;28;20030;-79
2022/09/09 03:14:40;;;;;;;0.55;0.13;;;13.80;99.90;;;;;;4979717;28;20030;-79
2022/09/09 03:17:06;;;;;;;1.00;0.20;;;13.80;99.90;;;;;;4977730;28;20026;-78
2022/09/09 03:19:37;;;;;;;1.08;0.20;;;13.80;99.90;;;;;;4994948;28;20038;-79
2022/09/09 03:22:05;;;;;;;0.47;0.10;;;13.80;99.90;;;;;;4972176;28;20022;-78
2022/09/09 03:24:33;;;;;;;0.50;0.10;;;13.70;99.90;;;;;;4983115;28;20033;-79
2022/09/09 03:27:02;;;;;;;0.50;0.15;;;13.70;99.90;;;;;;4968244;28;20379;-80
2022/09/09 03:29:28;;;;;;;1.30;0.20;;;13.70;99.90;;;;;;4999151;28;20090;-76
2022/09/09 03:31:57;;;;;;;0.68;0.30;;;13.70;99.90;;;;;;4981682;28;20026;-78
2022/09/09 03:34:23;;;;;;;0.75;0.15;;;13.70;99.90;;;;;;5015975;28;20475;-76
2022/09/09 03:36:49;;;;;;;0.50;0.20;;;13.70;99.90;;;;;;4968666;28;20033;-80
2022/09/09 03:39:15;;;;;;;0.65;0.20;;;13.80;99.90;;;;;;4975839;28;20490;-75
2022/09/09 03:41:45;;;;;;;1.38;0.20;;;13.70;99.90;;;;;;4998892;28;20117;-75
2022/09/09 03:44:10;;;;;;;0.73;0.40;;;13.70;99.90;;;;;;4998304;28;20036;-78
2022/09/09 03:46:39;;;;;;;1.02;0.20;;;13.70;99.90;;;;;;4981130;28;20037;-81
2022/09/09 03:49:05;;;;;;;0.90;0.30;;;13.70;99.90;;;;;;4999638;28;20026;-77
2022/09/09 03:51:36;;;;;;;1.92;0.20;;;13.80;99.90;;;;;;4986504;28;20022;-76
2022/09/09 03:54:01;;;;;;;1.30;0.30;;;13.80;99.90;;;;;;4988179;28;20023;-78
2022/09/09 03:56:27;;;;;;;2.88;0.25;;;13.80;99.90;;;;;;4978985;28;20041;-76
2022/09/09 03:58:53;;;;;;;0.98;0.30;;;13.80;99.90;;;;;;5001737;28;20034;-81
2022/09/09 04:01:19;;;;;;;1.63;0.30;;;13.90;99.90;;;;;;5003199;28;20360;-78
2022/09/09 04:03:46;;;;;;;1.45;0.30;;;13.90;99.90;;;;;;4980860;28;20041;-80
2022/09/09 04:06:14;;;;;;;1.38;0.25;;;14.00;99.90;;;;;;5004987;28;20447;-77
2022/09/09 04:08:41;;;;;;;1.23;0.30;;;14.00;99.90;;;;;;4985969;28;20176;-76
2022/09/09 04:11:07;;;;;;;1.95;0.40;;;14.00;99.90;;;;;;4982142;28;20486;-75
2022/09/09 04:13:37;;;;;;;2.38;0.35;;;14.00;99.90;;;;;;4988160;28;20031;-78
2022/09/09 04:16:03;;;;;;;2.13;0.50;;;14.00;99.90;;;;;;5001800;28;20041;-77
2022/09/09 04:18:30;;;;;;;2.33;0.50;;;14.00;99.90;;;;;;4969708;28;20046;-81
2022/09/09 04:20:57;;;;;;;2.50;0.50;;;14.10;99.90;;;;;;4969902;28;20054;-77
2022/09/09 04:23:33;;;;;;;1.30;0.40;;;14.10;99.90;;;;;;4964607;28;20042;-83
2022/09/09 04:26:00;;;;;;;3.15;0.50;;;14.10;99.90;;;;;;5003805;28;20109;-81
2022/09/09 04:28:30;;;;;;;1.65;0.43;;;14.20;99.90;;;;;;4981862;28;20031;-82
2022/09/09 04:30:56;;;;;;;2.22;0.40;;;14.20;99.90;;;;;;5003264;28;20042;-80
2022/09/09 04:33:27;;;;;;;1.20;0.30;;;14.20;99.90;;;;;;4975412;28;20030;-85
2022/09/09 04:35:53;;;;;;;1.20;0.30;;;14.20;99.90;;;;;;4986323;28;20053;-81
2022/09/09 04:38:22;;;;;;;1.30;0.30;;;14.20;99.90;;;;;;5001808;28;20085;-82
2022/09/09 04:40:51;;;;;;;1.40;0.38;;;14.30;99.90;;;;;;5003688;28;20038;-82
2022/09/09 04:43:18;;;;;;;1.60;0.35;;;14.20;99.90;;;;;;5002005;28;20030;-82
2022/09/09 04:45:48;;;;;;;1.83;0.40;;;14.30;99.90;;;;;;4971951;28;20034;-83
2022/09/09 04:48:14;;;;;;;0.77;0.30;;;14.30;99.90;;;;;;4982158;28;20614;-80
2022/09/09 04:50:40;;;;;;;1.67;0.30;;;14.30;99.90;;;;;;5018908;28;20427;-79
2022/09/09 04:53:07;;;;;;;1.02;0.30;;;14.40;99.90;;;;;;4980484;28;20027;-74
2022/09/09 04:55:36;;;;;;;1.23;0.30;;;14.40;99.90;;;;;;4996955;28;20062;-82
2022/09/09 04:58:06;;;;;;;2.13;0.50;;;14.50;99.90;;;;;;4995783;28;20066;-81
2022/09/09 05:00:33;;;;;;;2.88;0.30;;;14.50;99.90;;;;;;4993886;28;20034;-79
2022/09/09 05:03:05;;;;;;;1.35;0.35;;;14.50;99.90;;;;;;4993785;28;20510;-83
2022/09/09 05:05:31;;;;;;;;;;;14.50;99.90;;;;;;4995721;28;20440;-80
2022/09/09 05:08:02;;;;;;;3.28;0.38;;;14.60;99.90;;;;;;4997426;28;19913;-81
2022/09/09 05:10:28;;;;;;;1.67;0.30;;;14.60;99.90;;;;;;4997170;28;20125;-82
2022/09/09 05:12:54;;;;;;;1.80;0.38;;;14.60;99.90;;;;;;4995789;28;20122;-75
2022/09/09 05:15:21;;;;;;;3.42;0.40;;;14.60;99.90;;;;;;4978274;28;20031;-81
2022/09/09 05:17:47;;;;;;;1.38;0.40;;;14.60;99.90;;;;;;4976483;28;20027;-80
2022/09/09 05:20:14;;;;;;;1.30;0.38;;;14.60;99.90;;;;;;4991249;28;20069;-80
2022/09/09 05:22:40;;;;;;;2.15;0.25;;;14.60;99.90;;;;;;4977739;28;20490;-77
2022/09/09 05:25:07;;;;;;;1.15;0.32;;;14.60;99.90;;;;;;4993506;28;20113;-77
2022/09/09 05:27:34;;;;;;;1.85;0.30;;;14.60;99.90;;;;;;4994446;28;20545;-83
2022/09/09 05:30:00;;;;;;;2.20;0.30;;;14.70;99.90;;;;;;4979871;28;20122;-84
2022/09/09 05:32:26;;;;;;;2.17;0.43;;;14.70;99.90;;;;;;4994918;28;20117;-83
2022/09/09 05:34:52;;;;;;;2.35;0.40;;;14.70;99.90;;;;;;4977332;28;20034;-78
2022/09/09 05:37:18;;;;;;;0.90;0.25;;;14.80;99.90;;;;;;4992050;28;20046;-81
2022/09/09 05:39:44;;;;;;;1.10;0.30;;;14.80;99.90;;;;;;4999587;28;20045;-79
2022/09/09 05:42:10;;;;;;;1.65;0.32;;;14.80;99.90;;;;;;4973839;28;20237;-75
2022/09/09 05:44:38;;;;;;;2.60;0.38;;;14.90;99.90;;;;;;5013651;28;20170;-79
2022/09/09 05:47:04;;;;;;;1.67;0.25;;;14.90;99.90;;;;;;4993267;28;20088;-81
2022/09/09 05:49:30;;;;;;;2.33;0.55;;;14.90;99.90;;;;;;4961128;28;20443;-79
2022/09/09 05:51:55;;;;;;;1.88;0.30;;;14.90;99.90;;;;;;4978163;28;20035;-79
2022/09/09 05:54:23;;;;;;;1.13;0.28;;;14.90;99.90;;;;;;4992931;28;20023;-84
2022/09/09 05:56:52;;;;;;;2.97;0.30;;;14.90;99.90;;;;;;4993845;28;20042;-79
2022/09/09 05:59:18;;;;;;;1.42;0.25;;;14.90;99.90;;;;;;4994215;28;20041;-79
2022/09/09 06:01:45;;;;;;;3.08;0.40;;;14.90;99.90;;;;;;4981458;28;20038;-80
2022/09/09 06:04:18;;;;;;;1.27;0.30;;;14.90;99.90;;;;;;4977703;28;20023;-80
2022/09/09 06:06:43;;;;;;;1.42;0.20;;;14.90;99.90;;;;;;4993712;28;20130;-84
2022/09/09 06:09:15;;;;;;;1.85;0.30;;;15.00;99.90;;;;;;4992449;28;20062;-78
2022/09/09 06:11:42;;;;;;;1.83;0.30;;;15.00;99.90;;;;;;4993964;28;20023;-74
2022/09/09 06:14:08;;;;;;;1.92;0.30;;;15.00;99.90;;;;;;4993665;28;20124;-81
2022/09/09 06:16:37;;;;;;;3.42;0.30;;;15.00;99.90;;;;;;4978544;28;20030;-81
2022/09/09 06:19:05;;;;;;;1.65;0.20;;;15.10;99.90;;;;;;4973972;28;20045;-78
2022/09/09 06:21:36;;;;;;;2.95;0.60;;;15.20;99.90;;;;;;4959982;28;20498;-78
2022/09/09 06:24:03;;;;;;;2.85;0.30;;;15.30;99.90;;;;;;4976384;28;20038;-80
2022/09/09 06:26:32;;;;;;;1.70;0.30;;;15.50;99.90;;;;;;4978562;28;20027;-76
2022/09/09 06:29:03;;;;;;;4.38;0.70;;;15.50;99.90;;;;;;4993135;28;20543;-78
2022/09/09 06:31:33;;;;;;;1.70;0.40;;;15.50;99.90;;;;;;4977107;28;20031;-82
2022/09/09 06:34:06;;;;;;;1.50;0.20;;;15.60;99.90;;;;;;4993345;28;20506;-80
2022/09/09 06:36:34;;;;;;;1.35;0.20;;;15.70;99.90;;;;;;4992091;28;20408;-82
2022/09/09 06:39:00;;;;;;;2.50;0.30;;;15.90;99.90;;;;;;4977936;28;20522;-80
2022/09/09 06:41:31;;;;;;;2.20;0.30;;;16.00;99.90;;;;;;4999582;28;20133;-80
2022/09/09 06:43:57;;;;;;;1.85;0.20;;;15.90;99.90;;;;;;5008062;28;20060;-77
2022/09/09 06:46:32;;;;;;;3.63;0.30;;;15.90;99.90;;;;;;5007567;28;22195;-81
2022/09/09 06:48:59;;;;;;;1.92;0.20;;;15.90;99.90;;;;;;4978620;28;20841;-81
2022/09/09 06:51:34;;;;;;;4.38;0.40;;;15.90;99.90;;;;;;4993871;28;20030;-76
2022/09/09 06:54:03;;;;;;;2.75;0.30;;;16.00;99.90;;;;;;4977242;28;20038;-80
2022/09/09 06:56:30;;;;;;;1.00;0.20;;;15.90;99.90;;;;;;4991082;28;20042;-82
2022/09/09 06:59:00;;;;;;;4.20;0.30;;;15.80;99.90;;;;;;5009665;28;20142;-82
2022/09/09 07:01:31;;;;;;;3.42;0.55;;;15.90;99.90;;;;;;4976704;28;20117;-81
2022/09/09 07:04:02;;;;;;;2.47;0.30;;;16.10;99.90;;;;;;4994524;28;20134;-75
2022/09/09 07:06:34;;;;;;;2.53;0.47;;;16.10;99.90;;;;;;4933045;28;20622;-83
2022/09/09 07:09:04;;;;;;;2.35;0.30;;;16.20;99.90;;;;;;4993695;28;20033;-76
2022/09/09 07:11:31;;;;;;;;;;;16.30;99.90;;;;;;4992603;28;20120;-79
2022/09/09 07:13:58;;;;;;;1.83;0.30;;;16.40;99.90;;;;;;4975409;28;19910;-77
2022/09/09 07:16:25;;;;;;;2.47;0.30;;;16.60;99.90;;;;;;4976500;28;20034;-76
2022/09/09 07:18:52;;;;;;;1.27;0.20;;;16.60;99.90;;;;;;4977909;28;20419;-80
2022/09/09 07:21:20;;;;;;;1.83;0.30;;;16.60;99.90;;;;;;4991819;28;20052;-79
2022/09/09 07:23:46;;;;;;;2.70;0.30;;;16.60;99.90;;;;;;4994600;28;20054;-80
2022/09/09 07:26:17;;;;;;;3.83;0.80;;;16.50;99.90;;;;;;4979358;28;22234;-76
2022/09/09 07:28:43;;;;;;;1.85;0.30;;;16.50;99.90;;;;;;4973708;28;20053;-75
2022/09/09 07:31:25;;;;;;;2.88;0.30;;;16.70;99.90;;;;;;4969795;28;20034;-78
2022/09/09 07:33:53;;;;;;;2.13;0.20;;;16.80;99.90;;;;;;4991913;28;20048;-76
2022/09/09 07:36:21;;;;;;;5.60;0.30;;;16.90;99.90;;;;;;5005720;28;20033;-79
2022/09/09 07:38:51;;;;;;;3.50;0.50;;;17.00;99.90;;;;;;5010101;28;20042;-79
2022/09/09 07:41:21;;;;;;;2.42;0.30;;;17.00;99.90;;;;;;4973669;28;20074;-79
2022/09/09 07:43:50;;;;;;;1.60;0.40;;;16.90;99.90;;;;;;4992603;28;20061;-77
2022/09/09 07:46:19;;;;;;;2.70;0.40;;;17.00;99.90;;;;;;4977988;28;20034;-78
2022/09/09 07:48:53;;;;;;;2.55;0.45;;;17.00;99.90;;;;;;4976426;28;20030;-80
2022/09/09 07:51:24;;;;;;;2.03;0.30;;;17.10;99.90;;;;;;4990385;28;20037;-79
2022/09/09 07:54:02;;;;;;;3.33;0.40;;;17.20;99.90;;;;;;4975995;28;20066;-81
2022/09/09 07:56:30;;;;;;;2.75;0.40;;;17.30;99.90;;;;;;4992796;28;20026;-76
2022/09/09 07:58:58;;;;;;;1.52;0.20;;;17.40;99.90;;;;;;5008019;28;20053;-77
2022/09/09 08:01:28;;;;;;;2.35;0.40;;;17.50;99.90;;;;;;4962459;28;20030;-77
2022/09/09 08:03:59;;;;;;;5.05;0.57;;;17.50;99.90;;;;;;4992045;28;20121;-76
2022/09/09 08:06:26;;;;;;;2.20;0.30;;;17.50;99.90;;;;;;4975873;28;20034;-76
2022/09/09 08:08:54;;;;;;;2.58;0.30;;;17.50;99.90;;;;;;4986475;28;20053;-79
2022/09/09 08:11:22;;;;;;;2.08;0.43;;;17.80;99.90;;;;;;5004625;28;20026;-77
2022/09/09 08:13:50;;;;;;;8.02;0.50;;;17.80;99.90;;;;;;4987462;28;20102;-76
2022/09/09 08:16:18;;;;;;;4.43;0.40;;;18.00;99.90;;;;;;4985901;28;20038;-78
2022/09/09 08:18:44;;;;;;;5.15;0.40;;;18.00;99.90;;;;;;4993403;28;20053;-75
2022/09/09 08:21:17;;;;;;;2.55;0.85;;;18.10;99.90;;;;;;4984900;28;20390;-77
2022/09/09 08:23:45;;;;;;;2.08;0.32;;;18.00;99.90;;;;;;4972921;28;20037;-80
2022/09/09 08:26:14;;;;;;;4.05;0.35;;;18.10;99.90;;;;;;4966924;28;20029;-75
2022/09/09 08:28:41;;;;;;;2.72;0.30;;;18.10;99.90;;;;;;4980323;28;20030;-75
2022/09/09 08:31:16;;;;;;;3.45;0.30;;;18.10;99.90;;;;;;4956562;28;20117;-76
2022/09/09 08:33:45;;;;;;;4.15;0.30;;;18.10;99.90;;;;;;4974298;28;20410;-78
2022/09/09 08:36:17;;;;;;;2.97;0.50;;;17.90;99.90;;;;;;4960456;28;20501;-75
2022/09/09 08:38:43;;;;;;;1.98;0.30;;;18.00;99.90;;;;;;4996683;28;20045;-76
2022/09/09 08:41:16;;;;;;;5.15;0.40;;;17.90;99.90;;;;;;5007864;28;20071;-76
2022/09/09 08:43:46;;;;;;;1.58;0.20;;;18.10;99.90;;;;;;5031569;28;20494;-76
2022/09/09 08:46:21;;;;;;;;;;;18.10;99.90;;;;;;5021692;28;20017;-78
2022/09/09 08:49:14;;;;;;;1.75;0.30;;;18.20;99.90;;;;;;5009156;28;20359;-77
2022/09/09 08:51:41;;;;;;;3.83;0.30;;;18.10;99.90;;;;;;5026902;28;20025;-79
2022/09/09 08:54:09;;;;;;;1.40;0.28;;;18.10;99.90;;;;;;4982132;28;20045;-78
2022/09/09 08:56:36;;;;;;;2.72;0.40;;;18.10;99.90;;;;;;5016371;28;20029;-78
2022/09/09 08:59:05;;;;;;;2.58;0.50;;;18.00;99.90;;;;;;5018076;28;20033;-79
2022/09/09 09:01:46;;;;;;;4.40;0.50;;;18.00;99.90;;;;;;5020960;28;20025;-76
2022/09/09 09:04:46;;;;;;;1.70;0.40;;;18.10;99.90;;;;;;5034309;28;20073;-78
2022/09/09 09:07:47;;;;;;;3.42;0.30;;;18.10;99.90;;;;;;5029409;28;20034;-78
2022/09/09 09:10:36;;;;;;;2.30;0.30;;;18.00;99.90;;;;;;4995026;28;20037;-78
2022/09/09 09:13:03;;;;;;;4.78;0.30;;;18.10;99.90;;;;;;5019395;28;20120;-78
2022/09/09 09:15:36;;;;;;;2.97;0.30;;;18.10;99.90;;;;;;5002209;28;20024;-79
2022/09/09 09:18:04;;;;;;;2.03;0.20;;;18.00;99.90;;;;;;5030169;28;20025;-76
2022/09/09 09:20:59;;;;;;;2.88;0.20;;;18.00;99.90;;;;;;5015063;28;20119;-77
2022/09/09 09:23:29;;;;;;;2.22;0.30;;;18.10;99.90;;;;;;5015684;28;20021;-77
2022/09/09 09:26:00;;;;;;;3.03;0.13;;;18.20;99.90;;;;;;5044705;28;20360;-82
2022/09/09 09:28:32;;;;;;;3.30;0.30;;;18.40;99.90;;;;;;5016834;28;20018;-81
2022/09/09 09:31:07;;;;;;;3.53;0.30;;;18.30;99.90;;;;;;5018117;28;20037;-76
2022/09/09 09:33:41;;;;;;;4.25;0.30;;;18.50;99.90;;;;;;5028054;28;20021;-78
2022/09/09 09:36:08;;;;;;;4.30;0.22;;;18.60;99.90;;;;;;5028814;28;20437;-78
2022/09/09 09:38:37;;;;;;;1.77;0.30;;;18.70;99.90;;;;;;5014736;28;20191;-78
2022/09/09 09:41:03;;;;;;;2.17;0.20;;;18.80;99.90;;;;;;5015862;28;20550;-78
2022/09/09 09:43:32;;;;;;;2.33;0.20;;;18.70;99.90;;;;;;5016320;28;20030;-79
2022/09/09 09:46:04;;;;;;;2.65;0.38;;;18.40;99.90;;;;;;5024046;28;20033;-77
2022/09/09 09:48:30;;;;;;;2.20;0.30;;;18.50;99.90;;;;;;5028735;28;20501;-79
2022/09/09 09:51:07;;;;;;;4.22;0.30;;;18.60;99.90;;;;;;5018672;28;20136;-77
2022/09/09 09:53:36;;;;;;;3.95;0.20;;;18.70;99.90;;;;;;5027538;28;20033;-76
2022/09/09 09:56:11;;;;;;;5.00;0.40;;;18.80;99.90;;;;;;5063421;28;20021;-77
2022/09/09 09:58:58;;;;;;;3.88;0.20;;;18.80;99.90;;;;;;4999899;28;20057;-79
2022/09/09 10:01:33;;;;;;;3.42;0.30;;;19.00;99.90;;;;;;5032482;28;20026;-76
2022/09/09 10:04:19;;;;;;;2.53;0.20;;;19.30;99.90;;;;;;5037252;28;20036;-80
2022/09/09 10:06:46;;;;;;;2.28;0.20;;;19.30;99.90;;;;;;5020143;28;20021;-78
2022/09/09 10:09:41;;;;;;;2.72;0.20;;;19.40;99.90;;;;;;5030865;28;20030;-78
2022/09/09 10:12:12;;;;;;;2.47;0.20;;;19.60;99.90;;;;;;5018878;28;20494;-77
2022/09/09 10:14:42;;;;;;;2.78;0.30;;;19.50;99.90;;;;;;5017108;28;20025;-79
2022/09/09 10:17:39;;;;;;;3.58;0.28;;;19.40;99.90;;;;;;5013121;28;20486;-78
2022/09/09 10:20:32;;;;;;;1.35;0.15;;;19.20;99.90;;;;;;5018986;28;20026;-76
2022/09/09 10:23:26;;;;;;;3.03;0.30;;;19.00;99.90;;;;;;5029029;28;20025;-77
2022/09/09 10:25:55;;;;;;;3.67;0.15;;;18.60;99.90;;;;;;5027029;28;20029;-77
2022/09/09 10:28:37;;;;;;;1.58;0.20;;;18.60;99.90;;;;;;5016600;28;20029;-77
2022/09/09 10:31:23;;;;;;;0.95;0.10;;;18.60;99.90;;;;;;4999713;28;20057;-76
2022/09/09 10:33:58;;;;;;;2.05;0.10;;;18.80;99.90;;;;;;5016204;28;20387;-77
2022/09/09 10:36:25;;;;;;;3.67;0.20;;;19.00;99.90;;;;;;5030164;28;20029;-77
2022/09/09 10:39:12;;;;;;;1.63;0.20;;;18.80;99.90;;;;;;5028698;28;20098;-76
2022/09/09 10:41:48;;;;;;;2.05;0.20;;;18.80;99.90;;;;;;5017793;28;20053;-78
2022/09/09 10:44:17;;;;;;;2.55;0.20;;;18.80;99.90;;;;;;5030828;28;20053;-76
2022/09/09 10:47:15;;;;;;;2.83;0.20;;;18.70;99.90;;;;;;5046684;28;20078;-76
2022/09/09 10:50:03;;;;;;;2.22;0.20;;;18.60;99.90;;;;;;5018932;28;20088;-79
2022/09/09 10:52:44;;;;;;;1.75;0.20;;;18.50;99.90;;;;;;5025226;28;22450;-76
2022/09/09 10:55:12;;;;;;;4.20;0.20;;;18.50;99.90;;;;;;5009988;28;20088;-78
2022/09/09 10:57:51;;;;;;;1.83;0.28;;;18.50;99.90;;;;;;5003775;28;20328;-78
2022/09/09 11:00:23;;;;;;;2.00;0.40;;;18.40;99.90;;;;;;5028735;28;20043;-77
2022/09/09 11:02:58;;;;;;;2.70;0.15;;;18.40;99.90;;;;;;5033623;28;20036;-77
2022/09/09 11:05:43;;;;;;;1.02;0.20;;;18.60;99.90;;;;;;5015584;28;20037;-76
2022/09/09 11:08:20;;;;;;;1.90;0.15;;;19.00;99.90;;;;;;5017575;28;20025;-76
2022/09/09 11:11:17;;;;;;;2.33;0.20;;;19.30;99.90;;;;;;5058213;28;20104;-77
2022/09/09 11:13:54;;;;;;;2.75;0.20;;;19.20;99.90;;;;;;5034278;28;20034;-77
2022/09/09 11:16:23;;;;;;;1.95;0.20;;;19.10;99.90;;;;;;5015759;28;20151;-80
2022/09/09 11:18:49;;;;;;;2.08;0.15;;;19.20;99.90;;;;;;4995887;28;20037;-79
2022/09/09 11:21:33;;;;;;;1.88;0.20;;;19.10;99.90;;;;;;4998411;28;20036;-77
2022/09/09 11:24:09;;;;;;;3.67;0.20;;;19.00;99.90;;;;;;5013562;28;20029;-76
2022/09/09 11:26:47;;;;;;;2.10;0.20;;;18.90;99.90;;;;;;5007716;28;20160;-77
2022/09/09 11:29:16;;;;;;;2.40;0.20;;;18.80;99.90;;;;;;5061085;28;20029;-78
2022/09/09 11:32:01;;;;;;;2.55;0.20;;;18.40;99.90;;;;;;5033062;28;20024;-78
2022/09/09 11:35:12;;;;;;;3.42;0.20;;;18.20;99.90;;;;;;5030266;28;20047;-81
2022/09/09 11:38:02;;;;;;;2.97;0.10;;;18.30;99.90;;;;;;4999436;28;20076;-77
2022/09/09 11:40:30;;;;;;;1.83;0.13;;;18.20;99.90;;;;;;5033909;28;20068;-81
2022/09/09 11:43:21;;;;;;;1.80;0.20;;;18.20;99.90;;;;;;5031030;28;20074;-80
2022/09/09 11:45:58;;;;;;;3.47;0.25;;;18.30;99.90;;;;;;5020019;28;20073;-80
2022/09/09 11:48:39;;;;;;;2.53;0.20;;;18.10;99.90;;;;;;5011536;28;20327;-80
2022/09/09 11:51:08;;;;;;;1.80;0.30;;;18.00;99.90;;;;;;5022616;28;20111;-78
2022/09/09 11:53:47;;;;;;;0.98;0.10;;;17.80;99.90;;;;;;5028198;28;20060;-79
2022/09/09 11:56:23;;;;;;;2.40;0.20;;;17.90;99.90;;;;;;5012154;28;20542;-75
2022/09/09 11:59:06;;;;;;;2.03;0.20;;;17.90;99.90;;;;;;5013977;28;20049;-77
2022/09/09 12:01:42;;;;;;;2.50;0.30;;;17.90;99.90;;;;;;5026782;28;20034;-79
2022/09/09 12:04:17;;;;;;;2.13;0.20;;;17.80;99.90;;;;;;5058025;28;20021;-77
2022/09/09 12:07:08;;;;;;;1.90;0.17;;;17.60;99.90;;;;;;5028154;28;20025;-79
2022/09/09 12:09:56;;;;;;;1.17;0.20;;;17.70;99.90;;;;;;5024779;28;20440;-81
2022/09/09 12:12:27;;;;;;;0.55;0.10;;;18.00;99.90;;;;;;5020914;28;20033;-84
2022/09/09 12:15:08;;;;;;;1.20;0.10;;;18.00;99.90;;;;;;5034809;28;20025;-80
2022/09/09 12:17:42;;;;;;;0.70;0.10;;;18.10;99.90;;;;;;5027925;28;20032;-78
2022/09/09 12:20:11;;;;;;;1.33;0.30;;;18.10;99.90;;;;;;5017073;28;20030;-76
2022/09/09 12:22:59;;;;;;;1.23;0.10;;;18.20;99.90;;;;;;5025048;28;20037;-79
2022/09/09 12:25:39;;;;;;;0.80;0.10;;;18.20;99.90;;;;;;5062179;28;20052;-83
2022/09/09 12:28:09;;;;;;;2.75;0.20;;;18.20;99.90;;;;;;5031900;28;20021;-84
2022/09/09 12:30:41;;;;;;;1.83;0.17;;;18.10;99.90;;;;;;5035447;28;20024;-83
2022/09/09 12:33:13;;;;;;;1.20;0.10;;;17.90;99.90;;;;;;5033019;28;20030;-77
2022/09/09 12:35:41;;;;;;;3.35;0.22;;;18.00;99.90;;;;;;5034311;28;20501;-84
2022/09/09 12:38:21;;;;;;;1.10;0.15;;;17.90;99.90;;;;;;5030632;28;20034;-85
2022/09/09 12:40:56;;;;;;;1.95;0.20;;;17.90;99.90;;;;;;5031708;28;20076;-85
2022/09/09 12:43:23;;;;;;;1.45;0.20;;;17.90;99.90;;;;;;5031716;28;20033;-81
2022/09/09 12:45:57;;;;;;;0.85;0.10;;;18.10;99.90;;;;;;5012128;28;20619;-80
2022/09/09 12:48:36;;;;;;;0.98;0.10;;;18.00;99.90;;;;;;5027295;28;20029;-80
2022/09/09 12:51:07;;;;;;;1.08;0.10;;;18.00;99.90;;;;;;5033054;28;20128;-77
2022/09/09 12:53:36;;;;;;;1.23;0.10;;;18.00;99.90;;;;;;5032304;28;20108;-80
2022/09/09 12:56:08;;;;;;;1.42;0.10;;;18.30;99.90;;;;;;5031263;28;20025;-76
2022/09/09 12:58:37;;;;;;;1.83;0.20;;;18.70;99.90;;;;;;4986358;28;20064;-81
2022/09/09 13:01:04;;;;;;;1.02;0.10;;;18.80;99.90;;;;;;5019488;28;20034;-76
2022/09/09 13:03:33;;;;;;;2.15;0.20;;;18.90;99.90;;;;;;5049362;28;20516;-83
2022/09/09 13:06:11;;;;;;;0.93;0.13;;;18.80;99.90;;;;;;5025606;28;20432;-78
2022/09/09 13:08:37;;;;;;;1.20;0.20;;;18.60;99.90;;;;;;5027736;28;20052;-79
2022/09/09 13:11:09;;;;;;;1.17;0.20;;;18.30;99.90;;;;;;5028184;28;20474;-78
2022/09/09 13:13:37;;;;;;;3.35;0.30;;;18.30;99.90;;;;;;5045347;28;20029;-78
2022/09/09 13:16:07;;;;;;;1.88;0.20;;;18.20;99.90;;;;;;5018466;28;20030;-79
2022/09/09 13:18:36;;;;;;;1.85;0.30;;;18.30;99.90;;;;;;5037033;28;20544;-81
2022/09/09 13:21:02;;;;;;;2.35;0.30;;;18.70;99.90;;;;;;5030311;28;20024;-79